createdAt,value
2022-10-05T00:00:16.120Z,100.00
2022-10-05T00:03:18.397Z,100.00
2022-10-05T00:06:20.322Z,100.00
2022-10-05T00:09:22.617Z,100.00
2022-10-05T00:12:25.316Z,100.00
2022-10-05T00:15:27.557Z,100.00
2022-10-05T00:18:29.434Z,100.00
2022-10-05T00:21:33.379Z,100.00
2022-10-05T00:24:35.575Z,100.00
2022-10-05T00:27:38.905Z,100.00
2022-10-05T00:30:40.877Z,100.00
2022-10-05T00:33:43.152Z,100.00
2022-10-05T00:36:45.524Z,100.00
2022-10-05T00:39:49.289Z,100.00
2022-10-05T00:43:00.519Z,100.00
2022-10-05T00:46:08.664Z,100.00
2022-10-05T00:49:10.602Z,100.00
2022-10-05T00:52:21.936Z,100.00
2022-10-05T00:55:45.573Z,100.00
2022-10-05T00:58:52.184Z,100.00
2022-10-05T01:01:57.288Z,100.00
2022-10-05T01:05:02.676Z,100.00
2022-10-05T01:08:07.824Z,100.00
2022-10-05T01:11:28.961Z,100.00
2022-10-05T01:14:43.215Z,100.00
2022-10-05T01:18:11.658Z,100.00
2022-10-05T01:21:20.863Z,100.00
2022-10-05T01:24:26.034Z,100.00
2022-10-05T01:27:27.965Z,100.00
2022-10-05T01:30:34.926Z,100.00
2022-10-05T01:33:46.351Z,100.00
2022-10-05T01:36:54.660Z,100.00
2022-10-05T01:39:56.503Z,100.00
2022-10-05T01:43:17.725Z,100.00
2022-10-05T01:46:24.973Z,100.00
2022-10-05T01:49:38.782Z,100.00
2022-10-05T01:52:46.899Z,100.00
2022-10-05T01:55:54.178Z,100.00
2022-10-05T01:59:05.151Z,100.00
2022-10-05T02:02:10.084Z,100.00
2022-10-05T02:05:12.423Z,100.00
2022-10-05T02:08:21.944Z,100.00
2022-10-05T02:11:24.266Z,100.00
2022-10-05T02:14:35.994Z,100.00
2022-10-05T02:17:44.300Z,100.00
2022-10-05T02:20:47.779Z,100.00
2022-10-05T02:23:52.598Z,100.00
2022-10-05T02:26:55.386Z,100.00
2022-10-05T02:30:01.319Z,100.00
2022-10-05T02:33:09.163Z,100.00
2022-10-05T02:36:14.818Z,100.00
2022-10-05T02:39:22.148Z,100.00
2022-10-05T02:42:30.990Z,100.00
2022-10-05T02:45:36.206Z,100.00
2022-10-05T02:48:48.433Z,100.00
2022-10-05T02:51:52.039Z,100.00
2022-10-05T02:55:02.103Z,100.00
2022-10-05T02:58:06.866Z,100.00
2022-10-05T03:01:16.490Z,100.00
2022-10-05T03:04:18.978Z,100.00
2022-10-05T03:07:38.681Z,100.00
2022-10-05T03:10:48.436Z,100.00
2022-10-05T03:14:06.473Z,100.00
2022-10-05T03:17:14.513Z,100.00
2022-10-05T03:20:33.891Z,100.00
2022-10-05T03:23:48.037Z,100.00
2022-10-05T03:27:00.899Z,100.00
2022-10-05T03:30:06.213Z,100.00
2022-10-05T03:33:33.211Z,100.00
2022-10-05T03:36:47.390Z,100.00
2022-10-05T03:40:02.156Z,100.00
2022-10-05T03:43:04.414Z,100.00
2022-10-05T03:46:09.944Z,100.00
2022-10-05T03:49:24.635Z,100.00
2022-10-05T03:52:34.723Z,100.00
2022-10-05T03:55:40.263Z,100.00
2022-10-05T03:58:46.051Z,100.00
2022-10-05T04:01:51.185Z,100.00
2022-10-05T04:05:02.246Z,100.00
2022-10-05T04:08:24.541Z,100.00
2022-10-05T04:11:53.615Z,100.00
2022-10-05T04:15:18.880Z,100.00
2022-10-05T04:18:44.931Z,100.00
2022-10-05T04:21:57.357Z,100.00
2022-10-05T04:25:02.820Z,100.00
2022-10-05T04:28:10.345Z,100.00
2022-10-05T04:31:16.092Z,100.00
2022-10-05T04:34:36.473Z,100.00
2022-10-05T04:37:42.175Z,100.00
2022-10-05T04:41:00.128Z,100.00
2022-10-05T04:44:12.463Z,100.00
2022-10-05T04:47:25.793Z,100.00
2022-10-05T04:50:37.881Z,100.00
2022-10-05T04:53:43.033Z,100.00
2022-10-05T04:56:48.356Z,100.00
2022-10-05T05:00:09.644Z,100.00
2022-10-05T05:03:12.133Z,100.00
2022-10-05T05:06:38.145Z,100.00
2022-10-05T05:09:46.631Z,100.00
2022-10-05T05:13:07.565Z,100.00
2022-10-05T05:16:31.872Z,100.00
2022-10-05T05:19:52.837Z,100.00
2022-10-05T05:23:04.201Z,100.00
2022-10-05T05:26:28.752Z,100.00
2022-10-05T05:29:44.680Z,100.00
2022-10-05T05:32:46.546Z,100.00
2022-10-05T05:36:07.958Z,100.00
2022-10-05T05:39:16.228Z,100.00
2022-10-05T05:42:56.198Z,100.00
2022-10-05T05:46:16.108Z,100.00
2022-10-05T05:49:22.284Z,100.00
2022-10-05T05:52:28.775Z,98.44
2022-10-05T05:55:42.464Z,89.69
2022-10-05T05:58:51.903Z,89.18
2022-10-05T06:02:00.970Z,78.71
2022-10-05T06:05:22.397Z,65.87
2022-10-05T06:08:27.571Z,58.70
2022-10-05T06:11:35.261Z,59.23
2022-10-05T06:14:42.152Z,61.73
2022-10-05T06:17:48.625Z,68.50
2022-10-05T06:20:54.226Z,72.19
2022-10-05T06:23:56.462Z,74.43
2022-10-05T06:26:59.161Z,76.29
2022-10-05T06:30:15.152Z,76.57
2022-10-05T06:33:23.092Z,77.85
2022-10-05T06:36:41.344Z,77.93
2022-10-05T06:40:00.183Z,76.75
2022-10-05T06:43:21.632Z,76.96
2022-10-05T06:46:43.626Z,77.30
2022-10-05T06:49:58.894Z,77.79
2022-10-05T06:53:07.287Z,79.73
2022-10-05T06:56:15.113Z,80.69
2022-10-05T06:59:28.885Z,80.33
2022-10-05T07:02:43.172Z,80.28
2022-10-05T07:05:51.793Z,80.74
2022-10-05T07:08:57.582Z,81.76
2022-10-05T07:12:05.562Z,80.26
2022-10-05T07:15:27.525Z,79.09
2022-10-05T07:18:48.221Z,78.82
2022-10-05T07:22:09.303Z,79.16
2022-10-05T07:25:20.789Z,79.21
2022-10-05T07:28:35.824Z,79.60
2022-10-05T07:32:01.863Z,80.17
2022-10-05T07:35:09.333Z,80.89
2022-10-05T07:38:15.403Z,80.81
2022-10-05T07:41:22.907Z,79.45
2022-10-05T07:44:32.056Z,79.20
2022-10-05T07:47:48.041Z,79.40
2022-10-05T07:50:49.989Z,78.19
2022-10-05T07:53:55.445Z,77.75
2022-10-05T07:57:03.771Z,78.78
2022-10-05T08:00:14.999Z,78.87
2022-10-05T08:03:23.700Z,78.65
2022-10-05T08:10:24.040Z,77.59
2022-10-05T08:13:40.726Z,77.74
2022-10-05T08:16:43.563Z,77.37
2022-10-05T08:20:08.055Z,76.71
2022-10-05T08:23:25.189Z,78.63
2022-10-05T08:26:33.265Z,78.54
2022-10-05T08:29:41.821Z,78.50
2022-10-05T08:32:43.966Z,78.29
2022-10-05T08:35:50.134Z,78.22
2022-10-05T08:38:55.264Z,74.68
2022-10-05T08:42:15.754Z,73.60
2022-10-05T08:45:36.878Z,72.34
2022-10-05T08:48:47.989Z,70.51
2022-10-05T08:52:09.005Z,68.02
2022-10-05T08:55:23.115Z,66.87
2022-10-05T08:58:33.323Z,67.39
2022-10-05T09:01:49.393Z,68.40
2022-10-05T09:05:14.404Z,66.99
2022-10-05T09:08:25.765Z,68.76
2022-10-05T09:12:06.421Z,67.93
2022-10-05T09:15:25.426Z,68.45
2022-10-05T09:18:31.277Z,68.97
2022-10-05T09:21:39.063Z,68.81
2022-10-05T09:24:57.987Z,67.65
2022-10-05T09:28:11.422Z,68.00
2022-10-05T09:31:23.458Z,69.10
2022-10-05T09:34:30.718Z,65.50
2022-10-05T09:37:48.177Z,66.05
2022-10-05T09:40:50.015Z,65.03
2022-10-05T09:43:55.164Z,63.08
2022-10-05T09:47:02.543Z,60.83
2022-10-05T09:50:20.685Z,60.17
2022-10-05T09:53:41.568Z,59.58
2022-10-05T09:57:00.207Z,59.58
2022-10-05T10:03:22.378Z,58.40
2022-10-05T10:06:43.250Z,59.17
2022-10-05T10:09:48.272Z,60.42
2022-10-05T10:13:10.731Z,62.06
2022-10-05T10:16:23.560Z,62.32
2022-10-05T10:19:26.088Z,60.12
2022-10-05T10:22:42.221Z,60.50
2022-10-05T10:25:45.145Z,59.69
2022-10-05T10:28:53.334Z,58.26
2022-10-05T10:31:55.621Z,57.66
2022-10-05T10:35:14.138Z,64.66
2022-10-05T10:38:20.146Z,56.58
2022-10-05T10:41:59.018Z,57.84
2022-10-05T10:45:22.765Z,55.45
2022-10-05T10:48:30.581Z,60.88
2022-10-05T10:51:51.638Z,57.18
2022-10-05T10:54:53.595Z,59.41
2022-10-05T10:57:55.869Z,57.65
2022-10-05T11:00:57.754Z,55.57
2022-10-05T11:04:18.660Z,54.39
2022-10-05T11:07:39.658Z,57.37
2022-10-05T11:11:00.918Z,55.71
2022-10-05T11:14:30.557Z,52.87
2022-10-05T11:17:44.896Z,50.00
2022-10-05T11:21:04.492Z,48.42
2022-10-05T11:24:15.632Z,46.25
2022-10-05T11:27:31.309Z,42.73
2022-10-05T11:31:05.466Z,41.19
2022-10-05T11:34:26.131Z,43.69
2022-10-05T11:41:43.948Z,43.85
2022-10-05T11:45:06.203Z,41.85
2022-10-05T11:48:14.660Z,40.71
2022-10-05T11:51:16.540Z,40.23
2022-10-05T11:54:18.739Z,39.35
2022-10-05T11:57:28.769Z,38.86
2022-10-05T12:00:36.128Z,39.31
2022-10-05T12:03:46.910Z,39.59
2022-10-05T12:06:54.780Z,37.97
2022-10-05T12:10:17.406Z,39.99
2022-10-05T12:13:31.482Z,39.68
2022-10-05T12:16:41.520Z,39.18
2022-10-05T12:19:57.924Z,41.63
2022-10-05T12:23:12.979Z,44.41
2022-10-05T12:26:15.638Z,44.89
2022-10-05T12:29:24.185Z,43.31
2022-10-05T12:32:35.423Z,46.19
2022-10-05T12:35:51.085Z,45.63
2022-10-05T12:38:57.985Z,44.87
2022-10-05T12:42:08.012Z,44.53
2022-10-05T12:45:28.682Z,43.35
2022-10-05T12:48:37.614Z,43.97
2022-10-05T12:51:39.889Z,44.57
2022-10-05T12:54:50.725Z,44.33
2022-10-05T12:58:01.456Z,44.82
2022-10-05T13:01:12.014Z,43.51
2022-10-05T13:04:20.262Z,42.23
2022-10-05T13:07:28.999Z,42.37
2022-10-05T13:10:33.957Z,43.29
2022-10-05T13:13:48.827Z,42.61
2022-10-05T13:16:55.230Z,43.74
2022-10-05T13:20:00.710Z,46.96
2022-10-05T13:23:05.667Z,47.23
2022-10-05T13:26:11.437Z,46.46
2022-10-05T13:29:22.520Z,45.48
2022-10-05T13:32:44.989Z,46.76
2022-10-05T13:35:57.776Z,49.61
2022-10-05T13:39:03.840Z,44.87
2022-10-05T13:42:09.862Z,43.80
2022-10-05T13:45:15.124Z,43.63
2022-10-05T13:48:27.088Z,45.58
2022-10-05T13:51:34.494Z,46.44
2022-10-05T13:54:40.983Z,47.67
2022-10-05T13:57:51.529Z,49.85
2022-10-05T14:00:54.872Z,49.88
2022-10-05T14:04:24.552Z,50.77
2022-10-05T14:07:48.157Z,51.13
2022-10-05T14:10:50.304Z,52.72
2022-10-05T14:13:53.088Z,50.59
2022-10-05T14:16:56.822Z,50.51
2022-10-05T14:20:00.272Z,52.30
2022-10-05T14:23:17.293Z,51.75
2022-10-05T14:26:32.634Z,52.27
2022-10-05T14:29:35.801Z,52.57
2022-10-05T14:33:03.957Z,54.35
2022-10-05T14:36:20.333Z,53.83
2022-10-05T14:39:26.832Z,56.48
2022-10-05T14:42:30.443Z,57.61
2022-10-05T14:45:33.754Z,55.82
2022-10-05T14:48:43.321Z,54.55
2022-10-05T14:52:07.121Z,55.34
2022-10-05T14:59:46.636Z,57.34
2022-10-05T15:03:35.582Z,56.17
2022-10-05T15:06:46.929Z,56.80
2022-10-05T15:09:49.281Z,56.65
2022-10-05T15:12:51.914Z,60.44
2022-10-05T15:15:56.503Z,60.21
2022-10-05T15:19:16.017Z,62.34
2022-10-05T15:22:39.483Z,61.50
2022-10-05T15:25:46.171Z,59.35
2022-10-05T15:29:14.981Z,60.64
2022-10-05T15:32:32.412Z,59.69
2022-10-05T15:35:48.011Z,62.34
2022-10-05T15:39:08.869Z,63.18
2022-10-05T15:42:12.901Z,63.77
2022-10-05T15:45:14.841Z,65.94
2022-10-05T15:48:20.531Z,65.75
2022-10-05T15:51:30.647Z,65.73
2022-10-05T15:54:53.335Z,66.31
2022-10-05T15:58:19.007Z,67.21
2022-10-05T16:01:43.935Z,67.99
2022-10-05T16:05:03.917Z,69.99
2022-10-05T16:08:30.737Z,70.98
2022-10-05T16:11:51.626Z,71.62
2022-10-05T16:15:15.785Z,72.04
2022-10-05T16:18:24.166Z,70.43
2022-10-05T16:21:30.040Z,70.27
2022-10-05T16:24:51.590Z,71.30
2022-10-05T16:28:05.754Z,71.91
2022-10-05T16:31:12.296Z,71.53
2022-10-05T16:34:17.174Z,71.86
2022-10-05T16:37:28.500Z,72.46
2022-10-05T16:40:44.299Z,72.65
2022-10-05T16:43:52.680Z,73.25
2022-10-05T16:46:54.643Z,73.70
2022-10-05T16:49:56.861Z,74.23
2022-10-05T16:53:01.958Z,74.29
2022-10-05T16:56:08.589Z,74.74
2022-10-05T16:59:32.023Z,74.99
2022-10-05T17:02:46.450Z,75.67
2022-10-05T17:06:00.722Z,76.60
2022-10-05T17:09:12.247Z,76.18
2022-10-05T17:12:14.144Z,78.42
2022-10-05T17:15:32.920Z,77.04
2022-10-05T17:18:50.107Z,77.45
2022-10-05T17:21:55.167Z,79.10
2022-10-05T17:25:06.248Z,78.76
2022-10-05T17:28:27.751Z,78.85
2022-10-05T17:31:31.209Z,79.30
2022-10-05T17:34:36.964Z,79.21
2022-10-05T17:37:40.378Z,78.94
2022-10-05T17:41:06.198Z,78.85
2022-10-05T17:44:19.065Z,78.94
2022-10-05T17:47:45.343Z,78.78
2022-10-05T17:51:08.042Z,78.67
2022-10-05T17:54:42.632Z,78.61
2022-10-05T17:57:44.682Z,80.56
2022-10-05T18:01:13.436Z,80.92
2022-10-05T18:04:24.708Z,79.66
2022-10-05T18:07:27.326Z,81.36
2022-10-05T18:10:29.840Z,81.87
2022-10-05T18:13:35.117Z,81.92
2022-10-05T18:16:56.489Z,83.17
2022-10-05T18:20:27.616Z,82.91
2022-10-05T18:23:35.483Z,83.24
2022-10-05T18:26:45.277Z,83.84
2022-10-05T18:30:03.308Z,84.43
2022-10-05T18:33:11.200Z,83.82
2022-10-05T18:36:27.870Z,84.13
2022-10-05T18:39:39.309Z,84.64
2022-10-05T18:42:51.657Z,84.78
2022-10-05T18:45:57.678Z,85.30
2022-10-05T18:49:18.834Z,85.20
2022-10-05T18:52:20.672Z,84.62
2022-10-05T18:55:33.543Z,85.77
2022-10-05T18:58:41.562Z,86.58
2022-10-05T19:01:53.911Z,86.95
2022-10-05T19:05:02.112Z,87.68
2022-10-05T19:08:22.728Z,87.73
2022-10-05T19:11:27.767Z,87.75
2022-10-05T19:14:39.306Z,85.99
2022-10-05T19:17:46.997Z,85.80
2022-10-05T19:20:55.315Z,85.92
2022-10-05T19:24:15.726Z,86.72
2022-10-05T19:27:36.527Z,85.65
2022-10-05T19:30:44.427Z,85.74
2022-10-05T19:34:02.726Z,87.47
2022-10-05T19:37:14.589Z,89.03
2022-10-05T19:40:35.113Z,90.92
2022-10-05T19:43:40.076Z,92.57
2022-10-05T19:47:01.412Z,93.23
2022-10-05T19:50:23.656Z,93.21
2022-10-05T19:53:43.137Z,94.08
2022-10-05T19:56:49.999Z,93.49
2022-10-05T19:59:56.425Z,93.78
2022-10-05T20:03:14.649Z,94.15
2022-10-05T20:06:18.845Z,94.74
2022-10-05T20:09:21.281Z,94.13
2022-10-05T20:12:43.407Z,94.09
2022-10-05T20:16:23.707Z,93.81
2022-10-05T20:19:47.819Z,92.76
2022-10-05T20:22:49.713Z,92.65
2022-10-05T20:26:12.682Z,94.07
2022-10-05T20:29:14.599Z,95.74
2022-10-05T20:32:18.222Z,94.60
2022-10-05T20:35:23.729Z,94.66
2022-10-05T20:38:26.355Z,92.80
2022-10-05T20:41:28.563Z,92.94
2022-10-05T20:44:30.871Z,93.00
2022-10-05T20:47:33.726Z,94.37
2022-10-05T20:50:37.287Z,95.00
2022-10-05T20:53:39.191Z,95.77
2022-10-05T20:56:41.963Z,96.83
2022-10-05T20:59:43.947Z,96.82
2022-10-05T21:02:46.906Z,94.56
2022-10-05T21:05:48.792Z,94.28
2022-10-05T21:08:51.374Z,95.77
2022-10-05T21:11:54.490Z,94.70
2022-10-05T21:14:56.663Z,95.79
2022-10-05T21:17:58.541Z,96.05
2022-10-05T21:21:02.356Z,96.44
2022-10-05T21:24:04.826Z,96.06
2022-10-05T21:27:07.759Z,95.51
2022-10-05T21:30:09.882Z,97.19
2022-10-05T21:33:12.058Z,98.70
2022-10-05T21:36:14.643Z,98.27
2022-10-05T21:39:16.913Z,98.87
2022-10-05T21:42:18.755Z,99.20
2022-10-05T21:45:20.915Z,98.59
2022-10-05T21:48:23.201Z,97.68
2022-10-05T21:51:26.159Z,98.41
2022-10-05T21:54:28.566Z,99.20
2022-10-05T21:57:31.085Z,97.97
2022-10-05T22:00:33.033Z,97.74
2022-10-05T22:03:35.322Z,98.91
2022-10-05T22:06:37.303Z,97.80
2022-10-05T22:09:39.483Z,98.07
2022-10-05T22:12:46.759Z,98.34
2022-10-05T22:15:49.069Z,98.22
2022-10-05T22:18:51.694Z,99.29
2022-10-05T22:21:53.850Z,100.00
2022-10-05T22:24:55.779Z,100.00
2022-10-05T22:27:58.065Z,100.00
2022-10-05T22:31:01.724Z,99.73
2022-10-05T22:34:03.879Z,98.99
2022-10-05T22:37:06.385Z,99.49
2022-10-05T22:40:09.037Z,99.71
2022-10-05T22:43:11.947Z,100.00
2022-10-05T22:46:14.255Z,100.00
2022-10-05T22:49:16.158Z,100.00
2022-10-05T22:52:18.356Z,100.00
2022-10-05T22:55:20.333Z,100.00
2022-10-05T22:58:22.555Z,100.00
2022-10-05T23:01:24.517Z,100.00
2022-10-05T23:04:26.904Z,100.00
2022-10-05T23:07:28.796Z,100.00
2022-10-05T23:10:32.151Z,100.00
2022-10-05T23:13:34.075Z,100.00
2022-10-05T23:16:36.350Z,100.00
2022-10-05T23:19:38.324Z,100.00
2022-10-05T23:22:40.486Z,100.00
2022-10-05T23:25:42.420Z,100.00
2022-10-05T23:28:46.582Z,99.21
2022-10-05T23:31:48.547Z,99.01
2022-10-05T23:34:50.743Z,98.80
2022-10-05T23:37:52.614Z,100.00
2022-10-05T23:40:56.017Z,100.00
2022-10-05T23:43:57.960Z,100.00
2022-10-05T23:47:00.188Z,100.00
2022-10-05T23:50:02.502Z,100.00
2022-10-05T23:53:04.986Z,100.00
2022-10-05T23:56:06.963Z,100.00
2022-10-05T23:59:09.174Z,100.00
